createdAt,value
2022-11-05T00:00:28.247Z,4.53
2022-11-05T00:03:14.201Z,4.20
2022-11-05T00:06:00.861Z,4.43
2022-11-05T00:08:47.840Z,3.23
2022-11-05T00:11:18.722Z,6.23
2022-11-05T00:14:05.312Z,4.67
2022-11-05T00:16:46.738Z,5.20
2022-11-05T00:19:17.006Z,4.10
2022-11-05T00:22:03.607Z,5.10
2022-11-05T00:24:50.483Z,10.10
2022-11-05T00:27:21.155Z,6.77
2022-11-05T00:29:50.388Z,3.47
2022-11-05T00:32:19.596Z,5.17
2022-11-05T00:34:48.913Z,4.53
2022-11-05T00:37:17.941Z,5.30
2022-11-05T00:39:47.153Z,5.10
2022-11-05T00:42:33.840Z,5.23
2022-11-05T00:45:04.812Z,4.43
2022-11-05T00:47:52.109Z,4.97
2022-11-05T00:50:21.947Z,4.00
2022-11-05T00:52:57.449Z,2.53
2022-11-05T00:55:29.344Z,4.70
2022-11-05T00:57:58.731Z,4.33
2022-11-05T01:00:30.549Z,4.70
2022-11-05T01:03:00.487Z,3.93
2022-11-05T01:05:30.205Z,4.23
2022-11-05T01:07:59.667Z,4.37
2022-11-05T01:10:29.539Z,2.03
2022-11-05T01:12:59.251Z,3.00
2022-11-05T01:15:29.757Z,6.07
2022-11-05T01:17:58.763Z,4.53
2022-11-05T01:20:28.815Z,4.57
2022-11-05T01:22:58.170Z,4.13
2022-11-05T01:25:27.488Z,6.13
2022-11-05T01:27:57.087Z,5.90
2022-11-05T01:30:26.135Z,4.47
2022-11-05T01:32:56.945Z,4.17
2022-11-05T01:35:26.098Z,5.23
2022-11-05T01:37:55.247Z,4.13
2022-11-05T01:40:25.674Z,3.60
2022-11-05T01:42:54.882Z,2.73
2022-11-05T01:45:25.206Z,3.40
2022-11-05T01:48:00.095Z,3.67
2022-11-05T01:50:32.411Z,3.83
2022-11-05T01:53:05.041Z,3.20
2022-11-05T01:55:36.804Z,3.13
2022-11-05T01:58:08.529Z,3.10
2022-11-05T02:00:38.359Z,2.03
2022-11-05T02:03:09.574Z,1.90
2022-11-05T02:05:39.218Z,3.90
2022-11-05T02:08:08.729Z,5.83
2022-11-05T02:10:38.115Z,1.83
2022-11-05T02:13:07.256Z,3.57
2022-11-05T02:15:42.099Z,4.40
2022-11-05T02:18:18.055Z,3.53
2022-11-05T02:20:52.375Z,5.30
2022-11-05T02:23:40.399Z,2.50
2022-11-05T02:26:24.383Z,2.80
2022-11-05T02:29:05.680Z,2.90
2022-11-05T02:31:38.666Z,3.63
2022-11-05T02:34:12.019Z,4.93
2022-11-05T02:36:43.853Z,7.10
2022-11-05T02:39:20.478Z,5.93
2022-11-05T02:41:54.171Z,2.97
2022-11-05T02:44:28.816Z,4.03
2022-11-05T02:47:03.470Z,6.67
2022-11-05T02:49:37.783Z,2.40
2022-11-05T02:52:09.821Z,2.87
2022-11-05T02:54:40.795Z,4.07
2022-11-05T02:57:09.995Z,3.17
2022-11-05T02:59:39.202Z,5.90
2022-11-05T03:02:09.941Z,3.33
2022-11-05T03:04:39.283Z,5.37
2022-11-05T03:07:29.221Z,5.00
2022-11-05T03:10:04.978Z,3.53
2022-11-05T03:12:38.268Z,1.20
2022-11-05T03:15:14.386Z,3.50
2022-11-05T03:17:46.653Z,2.47
2022-11-05T03:20:20.559Z,6.33
2022-11-05T03:22:51.612Z,5.87
2022-11-05T03:25:23.540Z,4.53
2022-11-05T03:27:54.977Z,3.27
2022-11-05T03:30:25.224Z,6.23
2022-11-05T03:33:04.351Z,2.70
2022-11-05T03:35:36.452Z,4.30
2022-11-05T03:38:07.562Z,3.67
2022-11-05T03:40:38.112Z,4.20
2022-11-05T03:43:09.158Z,2.83
2022-11-05T03:45:40.766Z,3.27
2022-11-05T03:48:13.294Z,3.60
2022-11-05T03:50:44.921Z,5.50
2022-11-05T03:53:16.678Z,1.80
2022-11-05T03:55:50.486Z,3.30
2022-11-05T03:58:21.726Z,1.60
2022-11-05T04:00:51.579Z,9.53
2022-11-05T04:03:22.205Z,5.07
2022-11-05T04:06:13.869Z,3.47
2022-11-05T04:09:00.747Z,3.20
2022-11-05T04:11:59.232Z,5.47
2022-11-05T04:14:28.324Z,4.30
2022-11-05T04:17:09.845Z,5.03
2022-11-05T04:19:58.866Z,3.13
2022-11-05T04:22:46.607Z,8.50
2022-11-05T04:25:16.570Z,9.90
2022-11-05T04:27:46.084Z,2.93
2022-11-05T04:30:20.968Z,7.40
2022-11-05T04:33:00.223Z,5.63
2022-11-05T04:35:31.563Z,5.13
2022-11-05T04:38:00.799Z,4.20
2022-11-05T04:40:29.883Z,7.50
2022-11-05T04:42:59.407Z,8.50
2022-11-05T04:45:29.451Z,8.20
2022-11-05T04:47:58.609Z,5.43
2022-11-05T04:50:28.038Z,3.33
2022-11-05T04:52:58.652Z,2.53
2022-11-05T04:55:27.767Z,4.67
2022-11-05T04:57:57.574Z,4.47
2022-11-05T05:00:26.682Z,6.30
2022-11-05T05:02:55.976Z,3.30
2022-11-05T05:05:25.005Z,2.20
2022-11-05T05:07:54.170Z,5.10
2022-11-05T05:10:24.674Z,3.80
2022-11-05T05:12:53.838Z,3.53
2022-11-05T05:15:23.036Z,3.27
2022-11-05T05:17:52.598Z,4.03
2022-11-05T05:20:39.660Z,10.80
2022-11-05T05:23:09.349Z,4.63
2022-11-05T05:25:39.951Z,4.23
2022-11-05T05:28:09.175Z,4.23
2022-11-05T05:30:38.191Z,3.97
2022-11-05T05:33:07.334Z,4.90
2022-11-05T05:35:36.467Z,2.87
2022-11-05T05:38:05.798Z,3.07
2022-11-05T05:40:34.896Z,11.80
2022-11-05T05:43:05.449Z,1.20
2022-11-05T05:45:34.486Z,5.43
2022-11-05T05:48:04.123Z,3.43
2022-11-05T05:50:33.568Z,1.80
2022-11-05T05:53:09.489Z,1.00
2022-11-05T05:55:38.913Z,9.83
2022-11-05T05:58:09.482Z,1.40
2022-11-05T06:00:38.591Z,2.73
2022-11-05T06:03:08.032Z,3.07
2022-11-05T06:05:37.176Z,7.00
2022-11-05T06:08:06.482Z,0.90
2022-11-05T06:10:35.925Z,0.90
2022-11-05T06:13:05.152Z,2.27
2022-11-05T06:15:36.209Z,1.47
2022-11-05T06:18:05.680Z,1.53
2022-11-05T06:20:35.050Z,1.63
2022-11-05T06:23:04.187Z,0.90
2022-11-05T06:25:37.190Z,1.23
2022-11-05T06:28:10.029Z,7.00
2022-11-05T06:30:40.570Z,1.07
2022-11-05T06:33:10.140Z,10.03
2022-11-05T06:35:39.436Z,1.63
2022-11-05T06:38:08.570Z,2.20
2022-11-05T06:40:37.732Z,0.90
2022-11-05T06:43:06.932Z,3.03
2022-11-05T06:45:36.062Z,3.50
2022-11-05T06:48:06.902Z,0.97
2022-11-05T06:50:36.401Z,2.43
2022-11-05T06:53:06.830Z,7.33
2022-11-05T06:55:35.999Z,2.40
2022-11-05T06:58:05.683Z,5.13
2022-11-05T07:00:35.032Z,1.30
2022-11-05T07:03:09.468Z,1.60
2022-11-05T07:05:40.156Z,5.90
2022-11-05T07:08:09.348Z,1.27
2022-11-05T07:10:38.547Z,0.87
2022-11-05T07:13:08.851Z,1.30
2022-11-05T07:15:38.622Z,10.40
2022-11-05T07:18:09.620Z,0.93
2022-11-05T07:20:38.868Z,3.73
2022-11-05T07:23:09.498Z,1.20
2022-11-05T07:25:39.168Z,3.90
2022-11-05T07:28:08.594Z,0.90
2022-11-05T07:30:38.200Z,0.90
2022-11-05T07:33:07.444Z,0.90
2022-11-05T07:35:38.082Z,1.20
2022-11-05T07:38:07.374Z,0.87
2022-11-05T07:40:36.532Z,3.47
2022-11-05T07:43:05.699Z,1.10
2022-11-05T07:45:34.902Z,1.00
2022-11-05T07:48:05.113Z,0.80
2022-11-05T07:50:35.328Z,4.40
2022-11-05T07:53:07.066Z,1.50
2022-11-05T07:55:36.367Z,4.70
2022-11-05T07:58:05.574Z,1.63
2022-11-05T08:00:35.390Z,1.20
2022-11-05T08:03:08.192Z,2.50
2022-11-05T08:05:39.636Z,1.07
2022-11-05T08:08:10.802Z,0.87
2022-11-05T08:10:40.627Z,0.90
2022-11-05T08:13:10.649Z,0.70
2022-11-05T08:15:41.011Z,4.60
2022-11-05T08:18:11.882Z,3.97
2022-11-05T08:20:41.596Z,4.30
2022-11-05T08:23:13.077Z,1.53
2022-11-05T08:25:43.066Z,1.00
2022-11-05T08:28:14.106Z,0.90
2022-11-05T08:30:43.701Z,0.90
2022-11-05T08:33:13.595Z,0.90
2022-11-05T08:35:43.124Z,4.73
2022-11-05T08:38:14.856Z,5.67
2022-11-05T08:40:44.883Z,0.80
2022-11-05T08:43:15.390Z,1.20
2022-11-05T08:45:44.679Z,1.27
2022-11-05T08:48:15.912Z,0.90
2022-11-05T08:50:45.826Z,1.47
2022-11-05T08:53:16.762Z,0.90
2022-11-05T08:55:47.929Z,0.80
2022-11-05T08:58:17.645Z,1.00
2022-11-05T09:00:47.677Z,0.87
2022-11-05T09:03:16.995Z,1.00
2022-11-05T09:05:46.205Z,1.63
2022-11-05T09:08:17.882Z,0.80
2022-11-05T09:10:47.630Z,1.53
2022-11-05T09:13:19.251Z,1.47
2022-11-05T09:15:49.397Z,1.83
2022-11-05T09:18:18.893Z,1.57
2022-11-05T09:20:50.025Z,0.93
2022-11-05T09:23:20.625Z,0.80
2022-11-05T09:25:49.889Z,0.80
2022-11-05T09:28:20.545Z,1.27
2022-11-05T09:30:50.492Z,0.80
2022-11-05T09:33:20.969Z,1.00
2022-11-05T09:35:50.191Z,0.80
2022-11-05T09:38:20.849Z,0.90
2022-11-05T09:40:54.463Z,0.80
2022-11-05T09:43:31.292Z,5.90
2022-11-05T09:46:04.479Z,8.37
2022-11-05T09:48:34.966Z,10.33
2022-11-05T09:51:06.338Z,0.80
2022-11-05T09:53:40.278Z,0.87
2022-11-05T09:56:14.656Z,1.23
2022-11-05T09:58:45.518Z,0.80
2022-11-05T10:01:16.952Z,0.90
2022-11-05T10:03:48.465Z,0.80
2022-11-05T10:06:21.202Z,0.90
2022-11-05T10:08:53.363Z,1.00
2022-11-05T10:11:24.056Z,2.13
2022-11-05T10:13:55.765Z,0.80
2022-11-05T10:16:26.238Z,0.80
2022-11-05T10:18:59.306Z,5.30
2022-11-05T10:21:59.467Z,1.10
2022-11-05T10:24:20.350Z,4.50
2022-11-05T10:26:50.626Z,5.17
2022-11-05T10:29:24.734Z,7.27
2022-11-05T10:31:55.299Z,0.80
2022-11-05T10:34:25.922Z,1.40
2022-11-05T10:36:55.597Z,2.13
2022-11-05T10:39:27.961Z,0.90
2022-11-05T10:42:03.342Z,0.80
2022-11-05T10:44:36.810Z,0.80
2022-11-05T10:47:11.633Z,0.80
2022-11-05T10:49:48.259Z,0.80
2022-11-05T10:52:22.227Z,0.90
2022-11-05T10:54:54.688Z,0.87
2022-11-05T10:57:31.461Z,0.80
2022-11-05T11:00:28.494Z,3.03
2022-11-05T11:02:59.043Z,0.80
2022-11-05T11:05:30.146Z,0.80
2022-11-05T11:08:00.851Z,0.80
2022-11-05T11:10:33.232Z,0.80
2022-11-05T11:13:02.542Z,4.00
2022-11-05T11:15:35.343Z,0.80
2022-11-05T11:18:24.840Z,0.80
2022-11-05T11:20:54.021Z,0.80
2022-11-05T11:23:23.147Z,1.30
2022-11-05T11:25:55.726Z,0.80
2022-11-05T11:28:26.694Z,0.80
2022-11-05T11:30:59.273Z,0.80
2022-11-05T11:33:29.326Z,0.90
2022-11-05T11:35:58.508Z,1.23
2022-11-05T11:38:31.464Z,0.80
2022-11-05T11:41:11.133Z,0.80
2022-11-05T11:43:42.428Z,0.80
2022-11-05T11:46:15.630Z,0.90
2022-11-05T11:48:47.770Z,1.23
2022-11-05T11:51:18.822Z,0.80
2022-11-05T11:53:49.586Z,0.77
2022-11-05T11:56:21.278Z,0.70
2022-11-05T11:58:50.981Z,0.80
2022-11-05T12:01:37.717Z,1.10
2022-11-05T12:04:13.405Z,0.80
2022-11-05T12:06:48.517Z,0.80
2022-11-05T12:09:21.915Z,0.80
2022-11-05T12:11:56.527Z,0.80
2022-11-05T12:14:28.671Z,0.80
2022-11-05T12:17:06.196Z,1.87
2022-11-05T12:19:46.347Z,0.80
2022-11-05T12:22:22.752Z,0.70
2022-11-05T12:25:05.727Z,0.77
2022-11-05T12:27:44.237Z,0.90
2022-11-05T12:30:15.904Z,1.93
2022-11-05T12:32:51.242Z,0.80
2022-11-05T12:35:28.078Z,0.80
2022-11-05T12:38:00.129Z,1.40
2022-11-05T12:40:37.612Z,1.30
2022-11-05T12:43:13.558Z,0.80
2022-11-05T12:45:47.201Z,2.17
2022-11-05T12:48:30.351Z,0.70
2022-11-05T12:51:04.419Z,0.80
2022-11-05T12:53:39.574Z,0.80
2022-11-05T12:56:11.638Z,0.80
2022-11-05T12:58:45.337Z,0.80
2022-11-05T13:01:17.219Z,0.80
2022-11-05T13:03:48.642Z,0.80
2022-11-05T13:06:19.543Z,1.00
2022-11-05T13:08:50.608Z,2.10
2022-11-05T13:11:22.554Z,0.80
2022-11-05T13:13:59.842Z,0.80
2022-11-05T13:16:31.914Z,7.50
2022-11-05T13:19:04.680Z,0.93
2022-11-05T13:21:34.148Z,1.23
2022-11-05T13:24:05.909Z,0.80
2022-11-05T13:26:38.736Z,0.80
2022-11-05T13:29:14.639Z,0.80
2022-11-05T13:31:49.305Z,0.80
2022-11-05T13:34:18.410Z,0.80
2022-11-05T13:37:11.322Z,1.37
2022-11-05T13:39:44.872Z,1.67
2022-11-05T13:42:35.363Z,0.80
2022-11-05T13:45:19.564Z,0.80
2022-11-05T13:47:58.632Z,0.70
2022-11-05T13:50:48.020Z,0.80
2022-11-05T13:53:30.091Z,0.80
2022-11-05T13:56:04.141Z,2.20
2022-11-05T13:58:39.755Z,1.90
2022-11-05T14:01:12.089Z,0.80
2022-11-05T14:03:47.501Z,0.80
2022-11-05T14:06:16.878Z,0.80
2022-11-05T14:08:46.757Z,0.80
2022-11-05T14:11:22.654Z,1.10
2022-11-05T14:13:53.602Z,1.20
2022-11-05T14:16:24.277Z,1.20
2022-11-05T14:18:57.322Z,0.80
2022-11-05T14:21:50.868Z,0.80
2022-11-05T14:24:28.169Z,0.80
2022-11-05T14:27:21.334Z,0.90
2022-11-05T14:29:51.423Z,0.90
2022-11-05T14:32:28.040Z,0.80
2022-11-05T14:35:04.303Z,5.60
2022-11-05T14:37:37.165Z,0.90
2022-11-05T14:40:21.263Z,0.80
2022-11-05T14:42:52.613Z,3.23
2022-11-05T14:45:25.662Z,0.80
2022-11-05T14:47:56.528Z,0.80
2022-11-05T14:50:30.254Z,0.93
2022-11-05T14:53:00.283Z,0.80
2022-11-05T14:55:31.949Z,0.80
2022-11-05T14:58:06.451Z,0.80
2022-11-05T15:00:49.342Z,0.80
2022-11-05T15:03:33.113Z,0.80
2022-11-05T15:06:08.319Z,0.73
2022-11-05T15:08:38.823Z,0.80
2022-11-05T15:11:13.625Z,1.00
2022-11-05T15:13:45.300Z,0.77
2022-11-05T15:16:18.589Z,0.90
2022-11-05T15:18:49.080Z,1.00
2022-11-05T15:21:21.653Z,0.83
2022-11-05T15:23:52.522Z,0.80
2022-11-05T15:26:25.141Z,1.40
2022-11-05T15:28:54.824Z,1.80
2022-11-05T15:31:30.685Z,1.37
2022-11-05T15:34:17.945Z,0.70
2022-11-05T15:36:55.780Z,0.80
2022-11-05T15:39:32.738Z,0.80
2022-11-05T15:42:04.723Z,0.80
2022-11-05T15:44:35.360Z,1.20
2022-11-05T15:47:15.192Z,0.77
2022-11-05T15:49:45.659Z,1.40
2022-11-05T15:52:17.288Z,0.80
2022-11-05T15:54:46.779Z,0.80
2022-11-05T15:57:21.697Z,0.80
2022-11-05T15:59:51.218Z,1.10
2022-11-05T16:02:26.270Z,0.80
2022-11-05T16:04:55.767Z,1.50
2022-11-05T16:07:26.667Z,0.80
2022-11-05T16:09:58.273Z,0.80
2022-11-05T16:12:37.940Z,0.80
2022-11-05T16:15:20.998Z,0.80
2022-11-05T16:17:51.859Z,0.80
2022-11-05T16:20:25.908Z,0.80
2022-11-05T16:22:57.765Z,0.80
2022-11-05T16:25:31.703Z,1.77
2022-11-05T16:28:01.988Z,0.80
2022-11-05T16:30:31.399Z,0.80
2022-11-05T16:33:08.638Z,0.90
2022-11-05T16:35:41.936Z,1.00
2022-11-05T16:38:14.297Z,3.07
2022-11-05T16:40:43.801Z,0.80
2022-11-05T16:43:19.277Z,0.80
2022-11-05T16:45:49.246Z,0.80
2022-11-05T16:48:18.809Z,0.80
2022-11-05T16:50:48.181Z,0.80
2022-11-05T16:53:18.793Z,0.80
2022-11-05T16:55:48.050Z,0.80
2022-11-05T16:58:20.914Z,0.80
2022-11-05T17:00:50.707Z,0.80
2022-11-05T17:03:20.042Z,0.80
2022-11-05T17:05:49.599Z,0.80
2022-11-05T17:08:20.107Z,0.80
2022-11-05T17:10:49.302Z,1.27
2022-11-05T17:13:19.339Z,1.10
2022-11-05T17:15:50.007Z,0.80
2022-11-05T17:18:19.763Z,0.80
2022-11-05T17:20:49.876Z,1.10
2022-11-05T17:23:21.082Z,0.80
2022-11-05T17:25:51.169Z,0.80
2022-11-05T17:28:20.985Z,0.80
2022-11-05T17:30:53.066Z,0.80
2022-11-05T17:33:23.316Z,0.80
2022-11-05T17:35:52.772Z,1.00
2022-11-05T17:38:23.601Z,1.00
2022-11-05T17:40:52.807Z,0.80
2022-11-05T17:43:22.135Z,13.43
2022-11-05T17:46:01.556Z,0.80
2022-11-05T17:48:33.370Z,1.43
2022-11-05T17:51:02.563Z,0.80
2022-11-05T17:53:33.102Z,0.80
2022-11-05T17:56:02.367Z,0.70
2022-11-05T17:58:31.397Z,1.07
2022-11-05T18:01:00.718Z,1.27
2022-11-05T18:03:29.711Z,0.90
2022-11-05T18:06:02.688Z,0.90
2022-11-05T18:08:33.701Z,0.87
2022-11-05T18:11:02.915Z,1.03
2022-11-05T18:13:31.934Z,0.87
2022-11-05T18:16:01.120Z,0.90
2022-11-05T18:18:30.203Z,0.80
2022-11-05T18:20:59.448Z,0.70
2022-11-05T18:23:28.646Z,1.20
2022-11-05T18:25:59.111Z,0.80
2022-11-05T18:28:31.471Z,1.27
2022-11-05T18:31:00.918Z,0.90
2022-11-05T18:33:30.327Z,10.63
2022-11-05T18:35:59.471Z,0.80
2022-11-05T18:38:28.485Z,2.30
2022-11-05T18:40:59.169Z,1.53
2022-11-05T18:43:28.400Z,2.70
2022-11-05T18:45:57.668Z,0.80
2022-11-05T18:48:26.827Z,0.90
2022-11-05T18:51:01.549Z,0.77
2022-11-05T18:53:31.310Z,1.10
2022-11-05T18:56:02.147Z,0.70
2022-11-05T18:58:31.489Z,1.23
2022-11-05T19:01:06.329Z,1.23
2022-11-05T19:03:35.867Z,0.87
2022-11-05T19:06:05.635Z,0.80
2022-11-05T19:08:35.046Z,6.53
2022-11-05T19:11:10.628Z,0.80
2022-11-05T19:13:40.011Z,1.00
2022-11-05T19:16:10.151Z,0.80
2022-11-05T19:18:39.402Z,0.80
2022-11-05T19:21:10.014Z,1.30
2022-11-05T19:23:39.721Z,6.30
2022-11-05T19:26:11.204Z,0.80
2022-11-05T19:28:40.571Z,3.83
2022-11-05T19:31:09.688Z,0.80
2022-11-05T19:33:39.375Z,0.90
2022-11-05T19:36:09.122Z,0.70
2022-11-05T19:38:38.353Z,0.90
2022-11-05T19:41:08.304Z,0.80
2022-11-05T19:43:39.859Z,0.80
2022-11-05T19:46:10.255Z,0.80
2022-11-05T19:48:39.507Z,0.80
2022-11-05T19:51:09.592Z,1.23
2022-11-05T19:53:39.200Z,1.53
2022-11-05T19:56:09.037Z,0.90
2022-11-05T19:58:39.768Z,0.90
2022-11-05T20:01:08.941Z,0.80
2022-11-05T20:03:38.797Z,0.80
2022-11-05T20:06:09.137Z,1.87
2022-11-05T20:08:53.365Z,0.87
2022-11-05T20:11:28.057Z,0.77
2022-11-05T20:13:58.711Z,0.83
2022-11-05T20:16:28.465Z,0.90
2022-11-05T20:18:57.861Z,0.70
2022-11-05T20:21:27.275Z,0.80
2022-11-05T20:23:57.982Z,0.90
2022-11-05T20:26:27.351Z,1.47
2022-11-05T20:28:56.658Z,0.80
2022-11-05T20:31:27.497Z,0.90
2022-11-05T20:33:56.701Z,0.80
2022-11-05T20:36:26.863Z,0.90
2022-11-05T20:38:58.365Z,1.20
2022-11-05T20:41:27.975Z,0.90
2022-11-05T20:43:57.277Z,1.60
2022-11-05T20:46:27.901Z,3.53
2022-11-05T20:48:57.220Z,0.90
2022-11-05T20:51:26.846Z,0.87
2022-11-05T20:53:56.720Z,0.97
2022-11-05T20:56:26.601Z,0.90
2022-11-05T20:58:58.071Z,0.80
2022-11-05T21:01:29.470Z,1.37
2022-11-05T21:03:59.904Z,0.90
2022-11-05T21:06:30.128Z,1.37
2022-11-05T21:08:59.422Z,0.97
2022-11-05T21:11:28.664Z,0.90
2022-11-05T21:13:57.981Z,1.13
2022-11-05T21:16:28.551Z,0.90
2022-11-05T21:18:58.210Z,0.70
2022-11-05T21:21:27.415Z,0.70
2022-11-05T21:23:56.913Z,0.90
2022-11-05T21:26:27.148Z,0.80
2022-11-05T21:28:56.349Z,0.80
2022-11-05T21:31:25.532Z,0.80
2022-11-05T21:33:56.297Z,1.47
2022-11-05T21:36:25.565Z,13.73
2022-11-05T21:38:54.737Z,0.80
2022-11-05T21:41:24.105Z,0.90
2022-11-05T21:43:53.290Z,0.90
2022-11-05T21:46:22.600Z,0.80
2022-11-05T21:48:51.939Z,0.90
2022-11-05T21:51:39.997Z,0.80
2022-11-05T21:54:26.835Z,3.17
2022-11-05T21:57:13.644Z,1.00
2022-11-05T21:59:55.413Z,4.53
2022-11-05T22:02:25.625Z,1.40
2022-11-05T22:04:56.470Z,8.23
2022-11-05T22:07:28.046Z,8.00
2022-11-05T22:09:57.221Z,0.80
2022-11-05T22:12:27.264Z,1.87
2022-11-05T22:14:56.419Z,1.00
2022-11-05T22:17:25.687Z,0.70
2022-11-05T22:19:55.167Z,1.93
2022-11-05T22:22:24.273Z,0.90
2022-11-05T22:24:54.785Z,0.80
2022-11-05T22:27:23.887Z,0.90
2022-11-05T22:29:52.992Z,2.03
2022-11-05T22:32:22.010Z,1.20
2022-11-05T22:34:51.374Z,2.30
2022-11-05T22:37:20.515Z,21.97
2022-11-05T22:39:49.641Z,19.00
2022-11-05T22:42:20.397Z,24.63
2022-11-05T22:44:49.669Z,23.30
2022-11-05T22:47:19.701Z,2.73
2022-11-05T22:49:51.079Z,18.53
2022-11-05T22:52:20.131Z,18.17
2022-11-05T22:54:49.237Z,27.40
2022-11-05T22:57:18.756Z,28.47
2022-11-05T22:59:49.525Z,25.13
2022-11-05T23:02:18.890Z,21.50
2022-11-05T23:04:49.009Z,22.00
2022-11-05T23:07:35.928Z,20.70
2022-11-05T23:10:23.463Z,21.67
2022-11-05T23:12:53.417Z,26.97
2022-11-05T23:15:41.824Z,20.53
2022-11-05T23:18:28.385Z,21.90
2022-11-05T23:21:17.992Z,26.07
2022-11-05T23:24:06.411Z,33.00
2022-11-05T23:26:51.184Z,39.67
2022-11-05T23:29:20.884Z,29.33
2022-11-05T23:32:09.098Z,25.43
2022-11-05T23:34:38.518Z,30.77
2022-11-05T23:37:25.793Z,31.90
2022-11-05T23:39:55.328Z,30.23
2022-11-05T23:42:42.168Z,24.70
2022-11-05T23:45:29.519Z,22.17
2022-11-05T23:48:18.251Z,19.63
2022-11-05T23:50:49.082Z,27.67
2022-11-05T23:53:18.398Z,22.40
2022-11-05T23:55:47.708Z,1.20
2022-11-05T23:58:17.188Z,1.60
